createdAt,value
2017-05-15T00:00:17.542Z,31.7
2017-05-15T00:01:17.340Z,31.7
2017-05-15T00:02:17.351Z,31.7
2017-05-15T00:03:18.978Z,31.7
2017-05-15T00:04:18.916Z,31.7
2017-05-15T00:05:19.118Z,31.7
2017-05-15T00:06:17.760Z,31.6
2017-05-15T00:07:19.017Z,31.7
2017-05-15T00:08:17.583Z,31.7
2017-05-15T00:09:17.601Z,31.7
2017-05-15T00:10:19.225Z,31.7
2017-05-15T00:11:19.329Z,31.6
2017-05-15T00:12:19.666Z,31.7
2017-05-15T00:13:17.862Z,31.7
2017-05-15T00:14:17.949Z,31.7
2017-05-15T00:15:19.408Z,31.7
2017-05-15T00:16:17.839Z,31.7
2017-05-15T00:17:19.572Z,31.7
2017-05-15T00:18:18.355Z,31.7
2017-05-15T00:19:18.129Z,31.7
2017-05-15T00:20:19.637Z,31.7
2017-05-15T00:21:19.692Z,31.7
2017-05-15T00:22:19.687Z,31.7
2017-05-15T00:23:19.856Z,31.6
2017-05-15T00:24:18.514Z,31.6
2017-05-15T00:25:19.864Z,31.6
2017-05-15T00:26:19.771Z,31.7
2017-05-15T00:27:19.879Z,31.7
2017-05-15T00:28:19.844Z,31.6
2017-05-15T00:29:18.248Z,31.6
2017-05-15T00:30:18.654Z,31.6
2017-05-15T00:31:20.067Z,31.6
2017-05-15T00:32:18.399Z,31.6
2017-05-15T00:33:18.432Z,31.6
2017-05-15T00:34:18.591Z,31.6
2017-05-15T00:35:20.053Z,31.6
2017-05-15T00:36:20.352Z,31.6
2017-05-15T00:37:18.572Z,31.6
2017-05-15T00:38:20.212Z,31.6
2017-05-15T00:39:18.633Z,31.6
2017-05-15T00:40:20.254Z,31.6
2017-05-15T00:41:20.309Z,31.6
2017-05-15T00:42:20.693Z,31.6
2017-05-15T00:43:18.776Z,31.6
2017-05-15T00:44:18.940Z,31.6
2017-05-15T00:45:20.390Z,31.6
2017-05-15T00:46:18.869Z,31.6
2017-05-15T00:47:20.611Z,31.6
2017-05-15T00:48:20.867Z,31.6
2017-05-15T00:49:18.925Z,31.6
2017-05-15T00:50:18.939Z,31.6
2017-05-15T00:51:19.115Z,31.6
2017-05-15T00:52:19.144Z,31.6
2017-05-15T00:53:19.058Z,31.6
2017-05-15T00:54:19.395Z,31.6
2017-05-15T00:55:20.781Z,31.6
2017-05-15T00:56:19.272Z,31.6
2017-05-15T00:57:20.857Z,31.6
2017-05-15T00:58:21.021Z,31.6
2017-05-15T00:59:21.000Z,31.6
2017-05-15T01:00:19.653Z,31.5
2017-05-15T01:01:21.089Z,31.6
2017-05-15T01:02:21.159Z,31.6
2017-05-15T01:03:19.646Z,31.6
2017-05-15T01:04:21.298Z,31.5
2017-05-15T01:05:19.820Z,31.6
2017-05-15T01:06:21.697Z,31.5
2017-05-15T01:07:19.917Z,31.6
2017-05-15T01:08:21.454Z,31.6
2017-05-15T01:09:19.919Z,31.6
2017-05-15T01:10:21.537Z,31.6
2017-05-15T01:11:21.704Z,31.6
2017-05-15T01:12:20.467Z,31.5
2017-05-15T01:13:21.672Z,31.6
2017-05-15T01:14:20.306Z,31.6
2017-05-15T01:15:21.899Z,31.6
2017-05-15T01:16:20.208Z,31.5
2017-05-15T01:17:21.959Z,31.5
2017-05-15T01:18:20.617Z,31.5
2017-05-15T01:19:20.398Z,31.5
2017-05-15T01:20:20.558Z,31.5
2017-05-15T01:21:20.629Z,31.5
2017-05-15T01:22:20.528Z,31.5
2017-05-15T01:23:20.549Z,31.5
2017-05-15T01:24:22.610Z,31.5
2017-05-15T01:25:22.313Z,31.5
2017-05-15T01:26:22.382Z,31.5
2017-05-15T01:27:23.170Z,31.5
2017-05-15T01:28:22.564Z,31.5
2017-05-15T01:29:23.001Z,31.5
2017-05-15T01:30:22.785Z,31.5
2017-05-15T01:31:22.689Z,31.5
2017-05-15T01:32:22.759Z,31.5
2017-05-15T01:33:22.881Z,31.5
2017-05-15T01:34:23.066Z,31.5
2017-05-15T01:35:21.634Z,31.5
2017-05-15T01:36:23.144Z,31.5
2017-05-15T01:37:22.218Z,31.5
2017-05-15T01:38:23.224Z,31.5
2017-05-15T01:39:21.880Z,31.5
2017-05-15T01:40:23.371Z,31.5
2017-05-15T01:41:22.122Z,31.5
2017-05-15T01:42:23.592Z,31.5
2017-05-15T01:43:22.058Z,31.5
2017-05-15T01:44:22.138Z,31.5
2017-05-15T01:45:23.648Z,31.5
2017-05-15T01:46:22.235Z,31.5
2017-05-15T01:47:24.098Z,31.5
2017-05-15T01:48:23.800Z,31.5
2017-05-15T01:49:23.962Z,31.5
2017-05-15T01:50:22.298Z,31.5
2017-05-15T01:51:23.942Z,31.5
2017-05-15T01:52:22.552Z,31.5
2017-05-15T01:53:24.493Z,31.5
2017-05-15T01:54:22.622Z,31.5
2017-05-15T01:55:22.548Z,31.5
2017-05-15T01:56:22.626Z,31.5
2017-05-15T01:57:22.831Z,31.5
2017-05-15T01:58:24.447Z,31.5
2017-05-15T01:59:24.814Z,31.5
2017-05-15T02:00:24.611Z,31.4
2017-05-15T02:01:23.005Z,31.5
2017-05-15T02:02:23.014Z,31.5
2017-05-15T02:03:24.672Z,31.4
2017-05-15T02:04:23.137Z,31.5
2017-05-15T02:05:25.768Z,31.5
2017-05-15T02:06:23.236Z,31.4
2017-05-15T02:07:23.281Z,31.5
2017-05-15T02:08:25.022Z,31.5
2017-05-15T02:09:25.056Z,31.5
2017-05-15T02:10:25.050Z,31.5
2017-05-15T02:11:23.824Z,31.5
2017-05-15T02:12:25.137Z,31.4
2017-05-15T02:13:25.297Z,31.5
2017-05-15T02:14:25.286Z,31.4
2017-05-15T02:15:25.365Z,31.4
2017-05-15T02:16:25.401Z,31.4
2017-05-15T02:17:25.818Z,31.4
2017-05-15T02:18:24.151Z,31.5
2017-05-15T02:19:25.593Z,31.4
2017-05-15T02:20:25.640Z,31.4
2017-05-15T02:21:24.116Z,31.4
2017-05-15T02:22:24.275Z,31.4
2017-05-15T02:23:24.619Z,31.4
2017-05-15T02:24:25.879Z,31.4
2017-05-15T02:25:26.074Z,31.4
2017-05-15T02:26:26.160Z,31.4
2017-05-15T02:27:24.517Z,31.4
2017-05-15T02:28:26.145Z,31.4
2017-05-15T02:29:26.729Z,31.4
2017-05-15T02:30:26.468Z,31.4
2017-05-15T02:31:24.906Z,31.4
2017-05-15T02:32:24.780Z,31.4
2017-05-15T02:33:26.552Z,31.4
2017-05-15T02:34:26.482Z,31.4
2017-05-15T02:35:25.377Z,31.4
2017-05-15T02:36:25.182Z,31.4
2017-05-15T02:37:26.653Z,31.4
2017-05-15T02:38:25.280Z,31.4
2017-05-15T02:39:25.295Z,31.4
2017-05-15T02:40:26.898Z,31.4
2017-05-15T02:41:25.502Z,31.4
2017-05-15T02:42:25.239Z,31.4
2017-05-15T02:43:25.301Z,31.4
2017-05-15T02:44:25.354Z,31.4
2017-05-15T02:45:25.974Z,31.4
2017-05-15T02:46:27.136Z,31.4
2017-05-15T02:47:25.834Z,31.4
2017-05-15T02:48:25.465Z,31.4
2017-05-15T02:49:27.184Z,31.4
2017-05-15T02:50:27.174Z,31.4
2017-05-15T02:51:25.732Z,31.4
2017-05-15T02:52:27.243Z,31.4
2017-05-15T02:53:26.117Z,31.4
2017-05-15T02:54:25.793Z,31.4
2017-05-15T02:55:25.929Z,31.4
2017-05-15T02:56:27.547Z,31.4
2017-05-15T02:57:25.974Z,31.4
2017-05-15T02:58:25.863Z,31.4
2017-05-15T02:59:27.938Z,31.4
2017-05-15T03:00:25.972Z,31.4
2017-05-15T03:01:27.641Z,31.3
2017-05-15T03:02:27.629Z,31.4
2017-05-15T03:03:27.788Z,31.4
2017-05-15T03:04:26.166Z,31.4
2017-05-15T03:05:26.538Z,31.4
2017-05-15T03:06:26.241Z,31.4
2017-05-15T03:07:26.338Z,31.3
2017-05-15T03:08:26.382Z,31.4
2017-05-15T03:09:28.064Z,31.4
2017-05-15T03:10:28.083Z,31.3
2017-05-15T03:11:26.784Z,31.4
2017-05-15T03:12:28.233Z,31.4
2017-05-15T03:13:28.404Z,31.4
2017-05-15T03:14:26.700Z,31.3
2017-05-15T03:15:26.699Z,31.3
2017-05-15T03:16:26.780Z,31.4
2017-05-15T03:17:28.681Z,31.3
2017-05-15T03:18:27.024Z,31.3
2017-05-15T03:19:27.056Z,31.3
2017-05-15T03:20:27.092Z,31.3
2017-05-15T03:21:26.946Z,31.3
2017-05-15T03:22:28.583Z,31.3
2017-05-15T03:23:28.930Z,31.3
2017-05-15T03:24:27.234Z,31.3
2017-05-15T03:25:27.120Z,31.3
2017-05-15T03:26:27.274Z,31.3
2017-05-15T03:27:27.246Z,31.3
2017-05-15T03:28:27.400Z,31.3
2017-05-15T03:29:29.167Z,31.3
2017-05-15T03:30:28.939Z,31.3
2017-05-15T03:31:29.014Z,31.3
2017-05-15T03:32:29.159Z,31.3
2017-05-15T03:33:29.170Z,31.3
2017-05-15T03:34:29.192Z,31.3
2017-05-15T03:35:27.801Z,31.3
2017-05-15T03:36:29.246Z,31.3
2017-05-15T03:37:27.744Z,31.3
2017-05-15T03:38:27.791Z,31.3
2017-05-15T03:39:27.842Z,31.3
2017-05-15T03:40:27.856Z,31.3
2017-05-15T03:41:29.658Z,31.3
2017-05-15T03:42:29.401Z,31.3
2017-05-15T03:43:27.981Z,31.3
2017-05-15T03:44:27.988Z,31.3
2017-05-15T03:45:27.987Z,31.3
2017-05-15T03:46:29.459Z,31.3
2017-05-15T03:47:29.778Z,31.3
2017-05-15T03:48:29.573Z,31.3
2017-05-15T03:49:28.008Z,31.3
2017-05-15T03:50:28.059Z,31.3
2017-05-15T03:51:28.247Z,31.3
2017-05-15T03:52:29.823Z,31.3
2017-05-15T03:53:28.727Z,31.3
2017-05-15T03:54:30.060Z,31.3
2017-05-15T03:55:28.543Z,31.3
2017-05-15T03:56:30.150Z,31.3
2017-05-15T03:57:28.461Z,31.3
2017-05-15T03:58:30.215Z,31.3
2017-05-15T03:59:30.369Z,31.3
2017-05-15T04:00:30.269Z,31.3
2017-05-15T04:01:30.289Z,31.3
2017-05-15T04:02:28.694Z,31.3
2017-05-15T04:03:28.782Z,31.3
2017-05-15T04:04:30.436Z,31.3
2017-05-15T04:05:30.757Z,31.3
2017-05-15T04:06:29.107Z,31.3
2017-05-15T04:07:29.267Z,31.3
2017-05-15T04:08:30.739Z,31.3
2017-05-15T04:09:29.221Z,31.3
2017-05-15T04:10:31.000Z,31.3
2017-05-15T04:11:29.707Z,31.3
2017-05-15T04:12:31.004Z,31.3
2017-05-15T04:13:29.459Z,31.3
2017-05-15T04:14:31.078Z,31.3
2017-05-15T04:15:31.242Z,31.3
2017-05-15T04:16:29.682Z,31.3
2017-05-15T04:17:31.448Z,31.3
2017-05-15T04:18:29.586Z,31.4
2017-05-15T04:19:31.398Z,31.4
2017-05-15T04:20:29.876Z,31.4
2017-05-15T04:21:29.890Z,31.4
2017-05-15T04:22:31.383Z,31.4
2017-05-15T04:23:30.259Z,31.4
2017-05-15T04:24:31.642Z,31.4
2017-05-15T04:25:30.159Z,31.4
2017-05-15T04:26:31.617Z,31.4
2017-05-15T04:27:31.766Z,31.4
2017-05-15T04:28:31.743Z,31.3
2017-05-15T04:29:32.221Z,31.4
2017-05-15T04:30:30.222Z,31.2
2017-05-15T04:31:31.977Z,31
2017-05-15T04:32:31.938Z,30.8
2017-05-15T04:33:32.033Z,30.7
2017-05-15T04:34:30.566Z,30.5
2017-05-15T04:35:32.454Z,30.3
2017-05-15T04:36:30.590Z,30.1
2017-05-15T04:37:32.257Z,30
2017-05-15T04:38:32.346Z,29.9
2017-05-15T04:39:32.243Z,29.8
2017-05-15T04:40:32.425Z,29.6
2017-05-15T04:41:31.021Z,29.6
2017-05-15T04:42:32.577Z,29.5
2017-05-15T04:43:30.975Z,29.5
2017-05-15T04:44:30.877Z,29.4
2017-05-15T04:45:30.903Z,29.4
2017-05-15T04:46:32.627Z,29.4
2017-05-15T04:47:32.892Z,29.4
2017-05-15T04:48:30.967Z,29.3
2017-05-15T04:49:31.278Z,29.3
2017-05-15T04:50:32.781Z,29.3
2017-05-15T04:51:32.869Z,29.3
2017-05-15T04:52:32.932Z,29.2
2017-05-15T04:53:31.638Z,29.2
2017-05-15T04:54:33.007Z,29.2
2017-05-15T04:55:33.040Z,29.2
2017-05-15T04:56:32.627Z,29.2
2017-05-15T04:57:33.109Z,29.2
2017-05-15T04:58:33.072Z,29.2
2017-05-15T04:59:33.490Z,29.2
2017-05-15T05:00:31.552Z,29.2
2017-05-15T05:01:31.680Z,29.3
2017-05-15T05:02:33.185Z,29.2
2017-05-15T05:03:33.243Z,29.2
2017-05-15T05:04:33.407Z,29.2
2017-05-15T05:05:31.976Z,29.2
2017-05-15T05:06:32.616Z,29.1
2017-05-15T05:07:33.387Z,29.2
2017-05-15T05:08:31.864Z,29.1
2017-05-15T05:09:32.066Z,29.1
2017-05-15T05:10:31.915Z,29.1
2017-05-15T05:11:34.016Z,29.2
2017-05-15T05:12:33.806Z,29.2
2017-05-15T05:13:33.907Z,29.2
2017-05-15T05:14:33.855Z,29.2
2017-05-15T05:15:33.952Z,29.2
2017-05-15T05:16:34.143Z,29.2
2017-05-15T05:17:32.896Z,29.2
2017-05-15T05:18:34.148Z,29.3
2017-05-15T05:19:34.131Z,29.3
2017-05-15T05:20:34.296Z,29.3
2017-05-15T05:21:32.753Z,29.3
2017-05-15T05:22:34.287Z,29.3
2017-05-15T05:23:33.821Z,29.3
2017-05-15T05:24:32.870Z,29.4
2017-05-15T05:25:34.573Z,29.4
2017-05-15T05:26:34.613Z,29.4
2017-05-15T05:27:35.140Z,29.5
2017-05-15T05:28:34.802Z,29.5
2017-05-15T05:29:33.408Z,29.4
2017-05-15T05:30:33.312Z,29.5
2017-05-15T05:31:34.980Z,29.5
2017-05-15T05:32:34.837Z,29.5
2017-05-15T05:33:33.384Z,29.6
2017-05-15T05:34:33.301Z,29.6
2017-05-15T05:35:35.343Z,29.6
2017-05-15T05:36:35.030Z,29.6
2017-05-15T05:37:35.228Z,29.7
2017-05-15T05:38:33.661Z,29.7
2017-05-15T05:39:33.583Z,29.7
2017-05-15T05:40:33.734Z,29.7
2017-05-15T05:41:34.126Z,29.7
2017-05-15T05:42:33.802Z,29.7
2017-05-15T05:43:36.824Z,29.8
2017-05-15T05:44:35.486Z,29.7
2017-05-15T05:45:36.104Z,29.7
2017-05-15T05:46:33.881Z,29.7
2017-05-15T05:47:34.255Z,29.7
2017-05-15T05:48:34.115Z,29.7
2017-05-15T05:49:35.625Z,29.8
2017-05-15T05:50:34.241Z,29.7
2017-05-15T05:51:36.452Z,29.8
2017-05-15T05:52:35.790Z,29.8
2017-05-15T05:53:36.232Z,29.8
2017-05-15T05:54:36.553Z,29.8
2017-05-15T05:55:36.093Z,29.8
2017-05-15T05:56:34.574Z,29.9
2017-05-15T05:57:36.263Z,29.9
2017-05-15T05:58:36.854Z,29.9
2017-05-15T05:59:34.978Z,30
2017-05-15T06:00:34.680Z,30
2017-05-15T06:01:36.981Z,30
2017-05-15T06:02:36.042Z,30
2017-05-15T06:03:36.222Z,30
2017-05-15T06:04:37.742Z,30
2017-05-15T06:05:35.209Z,30
2017-05-15T06:06:37.942Z,30
2017-05-15T06:07:36.423Z,30
2017-05-15T06:08:35.161Z,30
2017-05-15T06:09:36.334Z,30
2017-05-15T06:10:35.664Z,30.1
2017-05-15T06:11:37.115Z,30.1
2017-05-15T06:12:37.548Z,30.1
2017-05-15T06:13:36.894Z,30
2017-05-15T06:14:37.805Z,30
2017-05-15T06:15:35.307Z,30.1
2017-05-15T06:16:37.593Z,30
2017-05-15T06:17:35.873Z,30.1
2017-05-15T06:18:35.444Z,30.1
2017-05-15T06:19:38.487Z,30.1
2017-05-15T06:20:37.089Z,30.1
2017-05-15T06:21:38.023Z,30.1
2017-05-15T06:22:35.693Z,30.1
2017-05-15T06:23:37.063Z,30.1
2017-05-15T06:24:37.528Z,30.1
2017-05-15T06:25:37.629Z,30.1
2017-05-15T06:26:38.103Z,30.1
2017-05-15T06:27:35.762Z,30.1
2017-05-15T06:28:38.391Z,30.1
2017-05-15T06:29:38.190Z,30.1
2017-05-15T06:30:37.474Z,30.1
2017-05-15T06:31:38.209Z,30.2
2017-05-15T06:32:38.377Z,30.3
2017-05-15T06:33:39.146Z,30.3
2017-05-15T06:34:37.850Z,30.3
2017-05-15T06:35:37.157Z,30.3
2017-05-15T06:36:38.536Z,30.4
2017-05-15T06:37:36.342Z,30.4
2017-05-15T06:38:37.766Z,30.4
2017-05-15T06:39:37.117Z,30.5
2017-05-15T06:40:37.172Z,30.4
2017-05-15T06:41:38.467Z,30.5
2017-05-15T06:42:38.517Z,30.5
2017-05-15T06:43:40.178Z,30.5
2017-05-15T06:44:38.044Z,30.5
2017-05-15T06:45:38.689Z,30.5
2017-05-15T06:46:39.915Z,30.5
2017-05-15T06:47:38.667Z,30.6
2017-05-15T06:48:38.042Z,30.6
2017-05-15T06:49:41.133Z,30.5
2017-05-15T06:50:39.101Z,30.6
2017-05-15T06:51:38.148Z,30.6
2017-05-15T06:52:39.114Z,30.7
2017-05-15T06:53:39.706Z,30.7
2017-05-15T06:54:39.931Z,30.7
2017-05-15T06:55:41.459Z,30.8
2017-05-15T06:56:37.281Z,30.8
2017-05-15T06:57:39.542Z,30.7
2017-05-15T06:58:41.050Z,30.8
2017-05-15T06:59:39.432Z,30.8
2017-05-15T07:00:39.284Z,30.8
2017-05-15T07:01:38.879Z,30.8
2017-05-15T07:02:39.070Z,30.8
2017-05-15T07:03:40.327Z,30.9
2017-05-15T07:04:43.229Z,30.9
2017-05-15T07:05:39.702Z,30.9
2017-05-15T07:06:38.919Z,31
2017-05-15T07:07:42.268Z,31
2017-05-15T07:08:37.820Z,31.1
2017-05-15T07:09:42.679Z,31.1
2017-05-15T07:10:42.578Z,31.1
2017-05-15T07:11:44.343Z,31.2
2017-05-15T07:12:41.534Z,31.1
2017-05-15T07:13:39.898Z,31.2
2017-05-15T07:14:38.316Z,31.2
2017-05-15T07:15:41.829Z,31.2
2017-05-15T07:16:38.972Z,31.2
2017-05-15T07:17:42.186Z,31.2
2017-05-15T07:18:41.023Z,31.3
2017-05-15T07:19:42.043Z,31.2
2017-05-15T07:20:39.964Z,31.3
2017-05-15T07:21:43.118Z,31.3
2017-05-15T07:22:40.874Z,31.4
2017-05-15T07:23:48.200Z,31.4
2017-05-15T07:24:45.713Z,31.4
2017-05-15T07:25:42.192Z,31.4
2017-05-15T07:26:42.842Z,31.4
2017-05-15T07:27:41.937Z,31.4
2017-05-15T07:28:41.139Z,31.4
2017-05-15T07:29:41.083Z,31.4
2017-05-15T07:30:43.100Z,31.5
2017-05-15T07:31:39.540Z,31.6
2017-05-15T07:32:46.099Z,31.5
2017-05-15T07:33:39.280Z,31.6
2017-05-15T07:34:47.102Z,31.6
2017-05-15T07:35:41.538Z,31.6
2017-05-15T07:36:42.400Z,31.6
2017-05-15T07:37:41.925Z,31.6
2017-05-15T07:38:40.000Z,31.6
2017-05-15T07:39:45.510Z,31.6
2017-05-15T07:40:44.191Z,31.6
2017-05-15T07:41:40.967Z,31.6
2017-05-15T07:42:40.200Z,31.7
2017-05-15T07:43:44.888Z,31.8
2017-05-15T07:44:45.449Z,31.8
2017-05-15T07:45:40.755Z,31.9
2017-05-15T07:46:44.975Z,31.9
2017-05-15T07:47:43.566Z,31.9
2017-05-15T07:48:45.989Z,32
2017-05-15T07:49:43.355Z,32
2017-05-15T07:50:43.117Z,32.1
2017-05-15T07:51:41.751Z,32.1
2017-05-15T07:52:41.567Z,32.1
2017-05-15T07:53:41.147Z,32.1
2017-05-15T07:54:43.048Z,32.1
2017-05-15T07:55:40.858Z,32.1
2017-05-15T07:56:47.780Z,32.1
2017-05-15T07:57:42.191Z,32.1
2017-05-15T07:58:44.399Z,32.2
2017-05-15T07:59:45.158Z,32.2
2017-05-15T08:00:44.370Z,32.2
2017-05-15T08:01:48.737Z,32.3
2017-05-15T08:02:46.455Z,32.2
2017-05-15T08:03:46.641Z,32.1
2017-05-15T08:04:46.436Z,32.1
2017-05-15T08:05:49.252Z,32.1
2017-05-15T08:06:46.468Z,32
2017-05-15T08:07:43.523Z,32
2017-05-15T08:08:44.099Z,32
2017-05-15T08:09:46.335Z,32
2017-05-15T08:10:46.707Z,31.9
2017-05-15T08:11:46.010Z,31.9
2017-05-15T08:12:45.495Z,31.9
2017-05-15T08:13:42.956Z,31.9
2017-05-15T08:14:43.121Z,31.9
2017-05-15T08:15:49.551Z,31.9
2017-05-15T08:16:46.207Z,31.8
2017-05-15T08:17:44.881Z,31.8
2017-05-15T08:18:51.314Z,31.8
2017-05-15T08:19:58.795Z,31.8
2017-05-15T08:20:51.817Z,31.8
2017-05-15T08:21:52.932Z,31.8
2017-05-15T08:22:53.346Z,31.8
2017-05-15T08:25:03.565Z,31.8
2017-05-15T08:26:52.625Z,31.8
2017-05-15T08:27:59.236Z,31.9
2017-05-15T08:28:49.377Z,32
2017-05-15T08:29:54.581Z,32.1
2017-05-15T08:30:50.120Z,32.1
2017-05-15T08:31:50.500Z,32.1
2017-05-15T08:32:51.033Z,32.1
2017-05-15T08:33:47.823Z,32.1
2017-05-15T08:34:49.255Z,32.1
2017-05-15T08:35:55.543Z,32.1
2017-05-15T08:36:49.422Z,32.1
2017-05-15T08:37:50.101Z,32.2
2017-05-15T08:38:54.677Z,32.1
2017-05-15T08:39:53.874Z,32.1
2017-05-15T08:40:51.814Z,32.1
2017-05-15T08:41:58.453Z,32
2017-05-15T08:42:52.055Z,32
2017-05-15T08:43:52.144Z,32
2017-05-15T08:44:50.700Z,32
2017-05-15T08:46:00.925Z,32
2017-05-15T08:46:52.292Z,32
2017-05-15T08:47:51.940Z,32
2017-05-15T08:48:49.161Z,32
2017-05-15T08:49:49.422Z,32
2017-05-15T08:50:52.565Z,32
2017-05-15T08:51:49.088Z,32.1
2017-05-15T08:52:50.651Z,32.1
2017-05-15T08:53:49.497Z,32.2
2017-05-15T08:54:50.153Z,32.2
2017-05-15T08:55:50.933Z,32.2
2017-05-15T08:56:49.853Z,32.2
2017-05-15T08:57:50.189Z,32.2
2017-05-15T08:58:51.836Z,32.2
2017-05-15T08:59:50.014Z,32.1
2017-05-15T09:00:50.594Z,32.1
2017-05-15T09:01:49.414Z,32.1
2017-05-15T09:02:55.275Z,32.2
2017-05-15T09:03:51.559Z,32.2
2017-05-15T09:04:53.408Z,32.2
2017-05-15T09:05:50.685Z,32.2
2017-05-15T09:06:48.332Z,32.1
2017-05-15T09:07:52.099Z,32.1
2017-05-15T09:08:48.910Z,32.1
2017-05-15T09:09:47.561Z,32.1
2017-05-15T09:10:52.760Z,32.1
2017-05-15T09:11:49.530Z,32
2017-05-15T09:12:50.021Z,32
2017-05-15T09:13:50.557Z,31.9
2017-05-15T09:14:51.690Z,32
2017-05-15T09:15:49.350Z,32
2017-05-15T09:16:48.277Z,32
2017-05-15T09:17:49.514Z,32.1
2017-05-15T09:18:49.863Z,32.1
2017-05-15T09:19:50.306Z,32.2
2017-05-15T09:20:55.896Z,32.2
2017-05-15T09:21:50.124Z,32.1
2017-05-15T09:22:54.483Z,32.1
2017-05-15T09:23:51.751Z,32.1
2017-05-15T09:24:50.464Z,32.1
2017-05-15T09:25:54.260Z,32.1
2017-05-15T09:26:51.228Z,32.2
2017-05-15T09:27:49.709Z,32.2
2017-05-15T09:28:51.797Z,32.2
2017-05-15T09:29:52.348Z,32.1
2017-05-15T09:30:51.117Z,32.1
2017-05-15T09:31:48.564Z,32.1
2017-05-15T09:32:51.345Z,32.1
2017-05-15T09:33:50.864Z,32.1
2017-05-15T09:34:48.524Z,32.1
2017-05-15T09:35:51.847Z,32.2
2017-05-15T09:36:51.546Z,32.2
2017-05-15T09:37:51.302Z,32.3
2017-05-15T09:38:49.852Z,32.4
2017-05-15T09:39:50.150Z,32.5
2017-05-15T09:40:51.795Z,32.5
2017-05-15T09:41:52.883Z,32.5
2017-05-15T09:42:49.160Z,32.6
2017-05-15T09:43:51.133Z,32.6
2017-05-15T09:44:49.849Z,32.6
2017-05-15T09:45:52.322Z,32.6
2017-05-15T09:46:52.116Z,32.6
2017-05-15T09:47:50.610Z,32.6
2017-05-15T09:48:55.634Z,32.5
2017-05-15T09:49:50.535Z,32.5
2017-05-15T09:50:54.947Z,32.5
2017-05-15T09:51:50.188Z,32.5
2017-05-15T09:52:49.810Z,32.5
2017-05-15T09:53:53.568Z,32.5
2017-05-15T09:54:52.880Z,32.6
2017-05-15T09:55:52.164Z,32.6
2017-05-15T09:56:53.493Z,32.6
2017-05-15T09:57:51.295Z,32.6
2017-05-15T09:58:52.671Z,32.6
2017-05-15T09:59:51.360Z,32.6
2017-05-15T10:00:50.471Z,32.5
2017-05-15T10:01:50.368Z,32.5
2017-05-15T10:02:53.265Z,32.4
2017-05-15T10:03:51.977Z,32.4
2017-05-15T10:04:50.820Z,32.4
2017-05-15T10:05:51.314Z,32.4
2017-05-15T10:06:51.324Z,32.4
2017-05-15T10:07:53.316Z,32.4
2017-05-15T10:08:50.708Z,32.4
2017-05-15T10:09:54.102Z,32.4
2017-05-15T10:10:56.470Z,32.5
2017-05-15T10:11:53.137Z,32.5
2017-05-15T10:12:54.886Z,32.5
2017-05-15T10:13:51.796Z,32.6
2017-05-15T10:14:52.788Z,32.6
2017-05-15T10:15:52.607Z,32.6
2017-05-15T10:16:54.255Z,32.6
2017-05-15T10:17:55.427Z,32.6
2017-05-15T10:18:56.787Z,32.7
2017-05-15T10:19:56.685Z,32.7
2017-05-15T10:20:53.036Z,32.7
2017-05-15T10:21:58.669Z,32.7
2017-05-15T10:22:52.885Z,32.7
2017-05-15T10:23:58.592Z,32.7
2017-05-15T10:24:54.966Z,32.7
2017-05-15T10:25:52.088Z,32.7
2017-05-15T10:26:53.070Z,32.7
2017-05-15T10:27:57.990Z,32.7
2017-05-15T10:28:58.897Z,32.7
2017-05-15T10:29:53.707Z,32.8
2017-05-15T10:30:55.901Z,32.8
2017-05-15T10:31:59.874Z,32.8
2017-05-15T10:32:56.063Z,32.8
2017-05-15T10:33:56.457Z,32.8
2017-05-15T10:34:58.218Z,32.8
2017-05-15T10:36:02.327Z,32.8
2017-05-15T10:36:57.842Z,32.8
2017-05-15T10:37:55.707Z,32.8
2017-05-15T10:38:55.212Z,32.8
2017-05-15T10:39:56.884Z,32.8
2017-05-15T10:40:57.026Z,32.8
2017-05-15T10:41:59.207Z,32.7
2017-05-15T10:42:53.788Z,32.8
2017-05-15T10:43:55.943Z,32.8
2017-05-15T10:44:59.213Z,32.8
2017-05-15T10:45:54.579Z,32.9
2017-05-15T10:46:56.278Z,32.9
2017-05-15T10:48:04.318Z,32.9
2017-05-15T10:48:57.042Z,32.9
2017-05-15T10:49:55.493Z,32.9
2017-05-15T10:50:59.693Z,33
2017-05-15T10:51:57.269Z,33
2017-05-15T10:53:01.303Z,33
2017-05-15T10:53:57.659Z,33
2017-05-15T10:54:58.279Z,33
2017-05-15T10:55:58.763Z,33.1
2017-05-15T10:57:03.105Z,33.1
2017-05-15T10:57:57.126Z,33.1
2017-05-15T10:59:01.489Z,33.1
2017-05-15T11:00:01.641Z,33.1
2017-05-15T11:00:57.565Z,33.1
2017-05-15T11:01:57.589Z,33.1
2017-05-15T11:03:01.449Z,33.1
2017-05-15T11:04:01.630Z,33.1
2017-05-15T11:05:10.748Z,33.1
2017-05-15T11:05:57.574Z,33.1
2017-05-15T11:07:00.064Z,33.1
2017-05-15T11:07:57.920Z,33.1
2017-05-15T11:08:59.182Z,33.2
2017-05-15T11:10:02.978Z,33.2
2017-05-15T11:11:03.837Z,33.2
2017-05-15T11:11:58.778Z,33.3
2017-05-15T11:12:58.234Z,33.3
2017-05-15T11:13:56.841Z,33.4
2017-05-15T11:14:59.293Z,33.4
2017-05-15T11:15:56.598Z,33.4
2017-05-15T11:16:59.173Z,33.4
2017-05-15T11:18:00.062Z,33.4
2017-05-15T11:18:56.718Z,33.4
2017-05-15T11:20:01.025Z,33.5
2017-05-15T11:20:54.891Z,33.5
2017-05-15T11:21:54.996Z,33.5
2017-05-15T11:22:57.478Z,33.5
2017-05-15T11:23:56.468Z,33.5
2017-05-15T11:24:56.445Z,33.5
2017-05-15T11:25:55.438Z,33.5
2017-05-15T11:26:53.753Z,33.5
2017-05-15T11:27:56.471Z,33.5
2017-05-15T11:28:55.861Z,33.5
2017-05-15T11:29:54.778Z,33.5
2017-05-15T11:30:56.008Z,33.5
2017-05-15T11:31:53.832Z,33.5
2017-05-15T11:32:56.154Z,33.5
2017-05-15T11:33:54.342Z,33.5
2017-05-15T11:34:57.127Z,33.5
2017-05-15T11:35:55.655Z,33.5
2017-05-15T11:36:55.707Z,33.5
2017-05-15T11:37:56.894Z,33.4
2017-05-15T11:38:58.297Z,33.4
2017-05-15T11:39:54.952Z,33.4
2017-05-15T11:40:54.857Z,33.5
2017-05-15T11:41:55.709Z,33.5
2017-05-15T11:42:54.380Z,33.4
2017-05-15T11:43:56.701Z,33.4
2017-05-15T11:44:55.128Z,33.4
2017-05-15T11:45:55.693Z,33.5
2017-05-15T11:46:58.303Z,33.5
2017-05-15T11:47:56.328Z,33.5
2017-05-15T11:48:56.417Z,33.5
2017-05-15T11:49:56.461Z,33.5
2017-05-15T11:50:56.046Z,33.5
2017-05-15T11:51:56.198Z,33.5
2017-05-15T11:52:57.628Z,33.5
2017-05-15T11:53:55.028Z,33.5
2017-05-15T11:54:58.111Z,33.5
2017-05-15T11:55:58.344Z,33.5
2017-05-15T11:56:56.836Z,33.5
2017-05-15T11:57:59.401Z,33.5
2017-05-15T11:58:58.677Z,33.5
2017-05-15T11:59:55.621Z,33.5
2017-05-15T12:00:57.091Z,33.5
2017-05-15T12:01:56.595Z,33.5
2017-05-15T12:02:56.912Z,33.5
2017-05-15T12:03:57.249Z,33.5
2017-05-15T12:05:02.606Z,33.4
2017-05-15T12:06:01.048Z,33.4
2017-05-15T12:06:58.580Z,33.4
2017-05-15T12:07:59.443Z,33.4
2017-05-15T12:09:00.273Z,33.4
2017-05-15T12:09:59.782Z,33.4
2017-05-15T12:10:58.105Z,33.4
2017-05-15T12:11:59.492Z,33.4
2017-05-15T12:13:03.850Z,33.4
2017-05-15T12:14:00.959Z,33.4
2017-05-15T12:14:59.057Z,33.4
2017-05-15T12:16:00.117Z,33.3
2017-05-15T12:17:04.129Z,33.3
2017-05-15T12:17:59.455Z,33.3
2017-05-15T12:18:59.029Z,33.3
2017-05-15T12:19:58.972Z,33.3
2017-05-15T12:20:57.547Z,33.2
2017-05-15T12:22:01.152Z,33.2
2017-05-15T12:22:58.629Z,33.2
2017-05-15T12:23:56.575Z,33.2
2017-05-15T12:25:02.156Z,33.2
2017-05-15T12:26:01.855Z,33.3
2017-05-15T12:26:57.298Z,33.3
2017-05-15T12:27:59.452Z,33.3
2017-05-15T12:29:04.310Z,33.3
2017-05-15T12:30:03.744Z,33.3
2017-05-15T12:31:03.507Z,33.3
2017-05-15T12:32:06.117Z,33.3
2017-05-15T12:33:04.233Z,33.4
2017-05-15T12:34:05.500Z,33.3
2017-05-15T12:35:02.017Z,33.3
2017-05-15T12:36:02.123Z,33.2
2017-05-15T12:37:02.661Z,33.3
2017-05-15T12:38:05.769Z,33.2
2017-05-15T12:39:02.655Z,33.2
2017-05-15T12:39:59.591Z,33.1
2017-05-15T12:41:06.474Z,33
2017-05-15T12:42:01.041Z,33
2017-05-15T12:43:03.724Z,32.9
2017-05-15T12:44:08.262Z,32.9
2017-05-15T12:45:04.806Z,32.9
2017-05-15T12:46:03.261Z,32.9
2017-05-15T12:47:05.759Z,32.9
2017-05-15T12:48:02.073Z,32.8
2017-05-15T12:49:03.964Z,32.9
2017-05-15T12:50:00.678Z,32.9
2017-05-15T12:51:05.515Z,32.9
2017-05-15T12:52:03.268Z,33
2017-05-15T12:52:59.915Z,33
2017-05-15T12:54:02.459Z,33
2017-05-15T12:55:09.639Z,33
2017-05-15T12:56:04.844Z,33.1
2017-05-15T12:57:03.692Z,33.1
2017-05-15T12:58:05.986Z,33.1
2017-05-15T12:59:03.771Z,33.1
2017-05-15T13:00:04.691Z,33.1
2017-05-15T13:01:00.989Z,33.1
2017-05-15T13:02:00.978Z,33
2017-05-15T13:03:03.256Z,33.1
2017-05-15T13:04:03.870Z,33.1
2017-05-15T13:05:07.588Z,33.1
2017-05-15T13:06:02.378Z,33.1
2017-05-15T13:07:11.319Z,33.1
2017-05-15T13:08:02.413Z,33.1
2017-05-15T13:09:06.618Z,33.1
2017-05-15T13:10:05.389Z,33.1
2017-05-15T13:11:04.063Z,33.2
2017-05-15T13:12:05.429Z,33.3
2017-05-15T13:13:01.068Z,33.3
2017-05-15T13:14:03.370Z,33.3
2017-05-15T13:14:58.380Z,33.3
2017-05-15T13:16:03.787Z,33.3
2017-05-15T13:17:00.522Z,33.4
2017-05-15T13:17:56.013Z,33.4
2017-05-15T13:19:06.289Z,33.4
2017-05-15T13:20:01.447Z,33.5
2017-05-15T13:20:59.552Z,33.4
2017-05-15T13:22:02.533Z,33.4
2017-05-15T13:23:02.189Z,33.4
2017-05-15T13:24:01.504Z,33.4